Time;durP1;ratioP1;P1;durP2;ratioP2;P2;SDS_P1;SDS_P2;PMS_P1;PMS_P2;Temp;Humidity;BMP_temperature;BMP_pressure;BME280_temperature;BME280_humidity;BME280_pressure;Samples;Min_cycle;Max_cycle;Signal;HPM_P1;HPM_P2
2024/01/27 00:01:22;;;;;;;16.17;2.65;;;8.40;99.90;;;;;;5066924;28;20043;-46
2024/01/27 00:03:48;;;;;;;24.23;2.70;;;8.40;99.90;;;;;;5066373;28;20313;-45
2024/01/27 00:06:13;;;;;;;16.73;2.85;;;8.40;99.90;;;;;;5067356;28;20080;-46
2024/01/27 00:08:39;;;;;;;12.52;1.98;;;8.40;99.90;;;;;;5067375;28;20092;-47
2024/01/27 00:11:05;;;;;;;29.67;3.22;;;8.40;99.90;;;;;;5066451;28;20097;-46
2024/01/27 00:13:31;;;;;;;15.70;2.35;;;8.40;99.90;;;;;;5067417;28;20025;-46
2024/01/27 00:15:57;;;;;;;16.65;2.53;;;8.40;99.90;;;;;;5066771;28;20069;-46
2024/01/27 00:18:23;;;;;;;17.25;2.30;;;8.50;99.90;;;;;;5066879;28;20048;-46
2024/01/27 00:20:49;;;;;;;15.00;2.50;;;8.50;99.90;;;;;;5067529;28;20029;-46
2024/01/27 00:23:14;;;;;;;19.65;2.30;;;8.50;99.90;;;;;;5067290;28;20032;-46
2024/01/27 00:25:40;;;;;;;13.43;2.20;;;8.50;99.90;;;;;;5067046;28;20094;-46
2024/01/27 00:28:06;;;;;;;17.50;2.67;;;8.50;99.90;;;;;;5067088;28;20021;-46
2024/01/27 00:30:31;;;;;;;15.70;2.28;;;8.50;99.90;;;;;;5065937;28;20278;-47
2024/01/27 00:32:57;;;;;;;15.60;2.55;;;8.50;99.90;;;;;;5066504;28;20043;-45
2024/01/27 00:35:23;;;;;;;17.15;2.20;;;8.40;99.90;;;;;;5067030;28;20370;-49
2024/01/27 00:37:48;;;;;;;16.17;2.83;;;8.40;99.90;;;;;;5066916;28;20278;-47
2024/01/27 00:40:15;;;;;;;14.73;3.55;;;8.40;99.90;;;;;;5066911;28;20195;-49
2024/01/27 00:42:41;;;;;;;13.35;1.90;;;8.40;99.90;;;;;;5065944;28;20029;-46
2024/01/27 00:45:07;;;;;;;14.88;2.35;;;8.40;99.90;;;;;;5066893;28;20027;-46
2024/01/27 00:47:32;;;;;;;13.85;1.92;;;8.40;99.90;;;;;;5066625;28;20037;-46
2024/01/27 00:49:58;;;;;;;15.70;2.83;;;8.40;99.90;;;;;;5066548;28;20079;-50
2024/01/27 00:52:24;;;;;;;16.35;2.40;;;8.40;99.90;;;;;;5065596;28;20067;-47
2024/01/27 00:54:49;;;;;;;17.30;2.25;;;8.40;99.90;;;;;;5065737;28;20036;-49
2024/01/27 00:57:15;;;;;;;15.15;2.70;;;8.50;99.90;;;;;;5066704;28;20033;-49
2024/01/27 00:59:41;;;;;;;21.23;3.38;;;8.40;99.90;;;;;;5066261;28;20035;-50
2024/01/27 01:02:07;;;;;;;17.48;2.67;;;8.40;99.90;;;;;;5066513;28;20040;-49
2024/01/27 01:04:33;;;;;;;14.88;3.38;;;8.50;99.90;;;;;;5066046;28;20025;-49
2024/01/27 01:06:58;;;;;;;18.55;3.15;;;8.50;99.90;;;;;;5065369;28;20064;-46
2024/01/27 01:09:24;;;;;;;21.10;3.40;;;8.50;99.90;;;;;;5066097;28;20052;-46
2024/01/27 01:11:50;;;;;;;18.88;3.42;;;8.50;99.90;;;;;;5066157;28;20080;-45
2024/01/27 01:14:15;;;;;;;20.08;2.90;;;8.40;99.90;;;;;;5066202;28;20035;-46
2024/01/27 01:16:41;;;;;;;18.02;3.50;;;8.40;99.90;;;;;;5065786;28;20116;-46
2024/01/27 01:19:07;;;;;;;12.90;2.13;;;8.40;99.90;;;;;;5065220;28;20025;-47
2024/01/27 01:21:33;;;;;;;11.90;1.67;;;8.40;99.90;;;;;;5065964;28;20025;-46
2024/01/27 01:23:58;;;;;;;13.93;2.17;;;8.40;99.90;;;;;;5065733;28;20068;-46
2024/01/27 01:26:24;;;;;;;12.05;2.33;;;8.40;99.90;;;;;;5065909;28;20024;-46
2024/01/27 01:28:50;;;;;;;19.13;2.85;;;8.40;99.90;;;;;;5066060;28;20092;-46
2024/01/27 01:31:16;;;;;;;17.35;2.42;;;8.50;99.90;;;;;;5066043;28;20052;-46
2024/01/27 01:33:42;;;;;;;19.40;3.08;;;8.50;99.90;;;;;;5064822;28;20291;-46
2024/01/27 01:36:08;;;;;;;19.13;2.60;;;8.50;99.90;;;;;;5065420;28;20036;-46
2024/01/27 01:38:34;;;;;;;17.30;3.45;;;8.50;99.90;;;;;;5066000;28;20033;-45
2024/01/27 01:40:59;;;;;;;20.00;3.08;;;8.50;99.90;;;;;;5065834;28;20029;-46
2024/01/27 01:43:25;;;;;;;18.27;3.28;;;8.40;99.90;;;;;;5065949;28;20302;-46
2024/01/27 01:45:53;;;;;;;17.42;3.63;;;8.50;99.90;;;;;;5065426;28;20036;-46
2024/01/27 01:48:19;;;;;;;10.75;1.98;;;8.40;99.90;;;;;;5065625;28;20017;-46
2024/01/27 01:50:45;;;;;;;9.15;2.03;;;8.40;99.90;;;;;;5064608;28;20079;-47
2024/01/27 01:53:11;;;;;;;12.27;1.85;;;8.40;99.90;;;;;;5065650;28;20109;-47
2024/01/27 01:55:37;;;;;;;13.98;2.30;;;8.40;99.90;;;;;;5065601;28;20035;-47
2024/01/27 01:58:02;;;;;;;14.80;2.30;;;8.40;99.90;;;;;;5065392;28;20183;-46
2024/01/27 02:00:28;;;;;;;13.02;1.75;;;8.40;99.90;;;;;;5064431;28;20033;-46
2024/01/27 02:02:54;;;;;;;13.95;2.15;;;8.40;99.90;;;;;;5065502;28;20189;-45
2024/01/27 02:05:19;;;;;;;15.57;2.30;;;8.40;99.90;;;;;;5065127;28;20029;-46
2024/01/27 02:07:45;;;;;;;23.92;3.00;;;8.40;99.90;;;;;;5065228;28;20097;-46
2024/01/27 02:10:17;;;;;;;16.20;2.30;;;8.30;99.90;;;;;;5065372;28;20106;-45
2024/01/27 02:12:46;;;;;;;13.25;1.95;;;8.30;99.90;;;;;;5065016;28;20017;-46
2024/01/27 02:15:15;;;;;;;9.55;1.70;;;8.40;99.90;;;;;;5065425;28;20193;-46
2024/01/27 02:17:41;;;;;;;12.67;1.40;;;8.40;99.90;;;;;;5065070;28;20057;-46
2024/01/27 02:20:07;;;;;;;16.17;2.17;;;8.40;99.90;;;;;;5065291;28;20290;-45
2024/01/27 02:22:34;;;;;;;10.07;1.95;;;8.40;99.90;;;;;;5064336;28;20037;-46
2024/01/27 02:24:59;;;;;;;12.75;1.90;;;8.40;99.90;;;;;;5065350;28;20278;-47
2024/01/27 02:27:25;;;;;;;11.70;2.28;;;8.40;99.90;;;;;;5065212;28;20029;-46
2024/01/27 02:29:51;;;;;;;11.02;1.58;;;8.50;99.90;;;;;;5065300;28;20188;-45
2024/01/27 02:32:16;;;;;;;12.18;1.65;;;8.40;99.90;;;;;;5065198;28;20047;-46
2024/01/27 02:34:42;;;;;;;8.70;1.55;;;8.50;99.90;;;;;;5066691;28;20270;-46
2024/01/27 02:37:08;;;;;;;9.65;1.73;;;8.50;99.90;;;;;;5068259;28;20179;-48
2024/01/27 02:39:34;;;;;;;11.75;2.05;;;8.50;99.90;;;;;;5069174;28;20037;-48
2024/01/27 02:42:00;;;;;;;14.73;2.38;;;8.50;99.90;;;;;;5068821;28;20042;-47
2024/01/27 02:44:26;;;;;;;13.75;1.80;;;8.60;99.90;;;;;;5068845;28;20238;-47
2024/01/27 02:46:51;;;;;;;11.07;1.73;;;8.60;99.90;;;;;;5069045;28;20040;-46
2024/01/27 02:49:17;;;;;;;13.45;1.80;;;8.60;99.90;;;;;;5068921;28;20175;-46
2024/01/27 02:51:43;;;;;;;13.35;2.33;;;8.60;99.90;;;;;;5067888;28;20028;-46
2024/01/27 02:54:09;;;;;;;15.85;1.90;;;8.60;99.90;;;;;;5068832;28;20100;-46
2024/01/27 02:56:35;;;;;;;12.20;1.98;;;8.70;99.90;;;;;;5067751;28;20040;-46
2024/01/27 02:59:01;;;;;;;15.98;2.38;;;8.70;99.90;;;;;;5068399;28;20282;-49
2024/01/27 03:01:26;;;;;;;11.13;1.60;;;8.70;99.90;;;;;;5068707;28;20075;-49
2024/01/27 03:03:52;;;;;;;11.07;1.67;;;8.70;99.90;;;;;;5067697;28;20025;-49
2024/01/27 03:06:18;;;;;;;12.45;3.03;;;8.70;99.90;;;;;;5068540;28;20033;-49
2024/01/27 03:08:43;;;;;;;16.67;2.75;;;8.60;99.90;;;;;;5068777;28;20032;-49
2024/01/27 03:11:09;;;;;;;24.40;2.53;;;8.60;99.90;;;;;;5068937;28;20017;-49
2024/01/27 03:13:34;;;;;;;12.48;1.90;;;8.60;99.90;;;;;;5068578;28;20052;-49
2024/01/27 03:16:00;;;;;;;13.07;1.77;;;8.60;99.90;;;;;;5068085;28;20045;-50
2024/01/27 03:18:26;;;;;;;20.75;2.83;;;8.60;99.90;;;;;;5068560;28;20087;-49
2024/01/27 03:20:52;;;;;;;10.60;1.80;;;8.60;99.90;;;;;;5068490;28;20045;-49
2024/01/27 03:23:17;;;;;;;13.02;3.35;;;8.60;99.90;;;;;;5068527;28;20029;-47
2024/01/27 03:25:43;;;;;;;10.80;2.10;;;8.60;99.90;;;;;;5068216;28;20174;-46
2024/01/27 03:28:09;;;;;;;11.02;1.92;;;8.60;99.90;;;;;;5068114;28;20227;-46
2024/01/27 03:30:34;;;;;;;11.38;1.52;;;8.60;99.90;;;;;;5067844;28;20036;-48
2024/01/27 03:33:00;;;;;;;10.85;1.95;;;8.60;99.90;;;;;;5068286;28;20025;-49
2024/01/27 03:35:26;;;;;;;13.32;2.20;;;8.60;99.90;;;;;;5068098;28;20033;-47
2024/01/27 03:37:51;;;;;;;11.63;1.45;;;8.50;99.90;;;;;;5068101;28;20024;-47
2024/01/27 03:40:18;;;;;;;11.75;2.22;;;8.50;99.90;;;;;;5068063;28;20048;-49
2024/01/27 03:42:43;;;;;;;20.58;2.47;;;8.40;99.90;;;;;;5068033;28;20036;-46
2024/01/27 03:45:09;;;;;;;15.30;1.92;;;8.40;99.90;;;;;;5066571;28;20230;-45
2024/01/27 03:47:35;;;;;;;10.95;2.92;;;8.40;99.90;;;;;;5067785;28;20052;-47
2024/01/27 03:50:00;;;;;;;3.80;1.65;;;8.40;99.90;;;;;;5067704;28;20175;-48
2024/01/27 03:52:26;;;;;;;8.98;1.50;;;8.40;99.90;;;;;;5067831;28;20028;-48
2024/01/27 03:54:51;;;;;;;7.47;1.48;;;8.50;99.90;;;;;;5050150;28;20075;-47
2024/01/27 03:57:17;;;;;;;9.63;1.75;;;8.60;99.90;;;;;;5067484;28;20036;-46
2024/01/27 03:59:43;;;;;;;7.50;1.52;;;8.80;99.90;;;;;;5067523;28;20039;-46
2024/01/27 04:02:08;;;;;;;5.10;1.15;;;8.60;99.90;;;;;;5066498;28;20294;-46
2024/01/27 04:04:34;;;;;;;9.90;1.52;;;8.50;99.90;;;;;;5067679;28;20044;-47
2024/01/27 04:07:01;;;;;;;6.57;1.42;;;8.40;99.90;;;;;;5067570;28;20056;-48
2024/01/27 04:09:27;;;;;;;9.38;2.08;;;8.40;99.90;;;;;;5066426;28;20033;-47
2024/01/27 04:11:53;;;;;;;9.13;1.30;;;8.40;99.90;;;;;;5067491;28;20092;-46
2024/01/27 04:14:18;;;;;;;6.57;1.63;;;8.40;99.90;;;;;;5067404;28;20021;-45
2024/01/27 04:16:44;;;;;;;8.65;1.38;;;8.40;99.90;;;;;;5067009;28;20048;-45
2024/01/27 04:19:09;;;;;;;8.45;1.13;;;8.40;99.90;;;;;;5066346;28;20098;-46
2024/01/27 04:21:35;;;;;;;6.88;1.58;;;8.30;99.90;;;;;;5067309;28;20024;-46
2024/01/27 04:24:01;;;;;;;11.63;1.50;;;8.30;99.90;;;;;;5067235;28;20029;-46
2024/01/27 04:26:26;;;;;;;5.68;0.95;;;8.40;99.90;;;;;;5066078;28;20047;-46
2024/01/27 04:28:52;;;;;;;6.78;1.23;;;8.40;99.90;;;;;;5067223;28;20182;-46
2024/01/27 04:31:18;;;;;;;9.45;1.27;;;8.50;99.90;;;;;;5066707;28;20038;-45
2024/01/27 04:33:44;;;;;;;9.07;1.33;;;8.50;99.90;;;;;;5067254;28;20287;-46
2024/01/27 04:36:10;;;;;;;7.25;2.10;;;8.50;99.90;;;;;;5067042;28;20025;-46
2024/01/27 04:38:36;;;;;;;7.90;1.20;;;8.50;99.90;;;;;;5066975;28;20048;-46
2024/01/27 04:41:02;;;;;;;7.75;1.77;;;8.40;99.90;;;;;;5066954;28;20039;-47
2024/01/27 04:43:28;;;;;;;8.10;1.90;;;8.40;99.90;;;;;;5066826;28;20332;-46
2024/01/27 04:45:54;;;;;;;9.57;1.50;;;8.40;99.90;;;;;;5066925;28;20059;-46
2024/01/27 04:48:20;;;;;;;17.83;2.03;;;8.40;99.90;;;;;;5066722;28;20287;-46
2024/01/27 04:50:46;;;;;;;13.05;1.70;;;8.40;99.90;;;;;;5065771;28;20082;-47
2024/01/27 04:53:12;;;;;;;11.48;1.30;;;8.50;99.90;;;;;;5066702;28;20051;-47
2024/01/27 04:55:38;;;;;;;12.68;2.25;;;8.50;99.90;;;;;;5066444;28;20222;-46
2024/01/27 04:58:04;;;;;;;11.45;2.05;;;8.50;99.90;;;;;;5065845;28;20093;-46
2024/01/27 05:00:30;;;;;;;14.38;2.40;;;8.50;99.90;;;;;;5065422;28;20025;-47
2024/01/27 05:02:57;;;;;;;11.35;1.95;;;8.60;99.90;;;;;;5065455;28;20055;-46
2024/01/27 05:05:22;;;;;;;15.40;2.35;;;8.60;99.90;;;;;;5066418;28;20027;-47
2024/01/27 05:07:48;;;;;;;8.63;1.50;;;8.60;99.90;;;;;;5066321;28;20053;-45
2024/01/27 05:10:15;;;;;;;11.55;1.90;;;8.60;99.90;;;;;;5066422;28;20187;-45
2024/01/27 05:12:41;;;;;;;10.07;1.88;;;8.70;99.90;;;;;;5065370;28;20075;-46
2024/01/27 05:15:08;;;;;;;9.45;1.17;;;8.80;99.90;;;;;;5066344;28;20270;-49
2024/01/27 05:17:33;;;;;;;14.48;1.88;;;8.80;99.90;;;;;;5065875;28;20049;-48
2024/01/27 05:19:59;;;;;;;8.05;1.33;;;8.80;99.90;;;;;;5065987;28;20059;-48
2024/01/27 05:22:25;;;;;;;9.10;1.42;;;8.80;99.90;;;;;;5065940;28;20147;-49
2024/01/27 05:24:50;;;;;;;10.48;1.55;;;8.80;99.90;;;;;;5066187;28;20056;-47
2024/01/27 05:27:16;;;;;;;8.85;1.55;;;8.80;99.90;;;;;;5065797;28;20043;-48
2024/01/27 05:29:42;;;;;;;12.48;2.03;;;8.80;99.90;;;;;;5065822;28;20031;-49
2024/01/27 05:32:08;;;;;;;9.85;1.73;;;8.80;99.90;;;;;;5066023;28;20100;-49
2024/01/27 05:34:33;;;;;;;11.25;2.35;;;8.80;99.90;;;;;;5065944;28;20242;-50
2024/01/27 05:36:59;;;;;;;11.88;2.15;;;8.80;99.90;;;;;;5065349;28;20021;-49
2024/01/27 05:39:25;;;;;;;9.10;2.03;;;8.80;99.90;;;;;;5065750;28;20163;-49
2024/01/27 05:41:50;;;;;;;12.30;1.55;;;8.80;99.90;;;;;;5065967;28;20029;-49
2024/01/27 05:44:16;;;;;;;10.32;1.77;;;8.80;99.90;;;;;;5065691;28;20086;-49
2024/01/27 05:46:42;;;;;;;10.38;2.35;;;8.80;99.90;;;;;;5065722;28;20059;-49
2024/01/27 05:49:07;;;;;;;11.90;1.75;;;8.80;99.90;;;;;;5065825;28;20025;-45
2024/01/27 05:51:33;;;;;;;11.60;1.73;;;8.80;99.90;;;;;;5065398;28;20037;-46
2024/01/27 05:53:59;;;;;;;5.05;1.35;;;8.80;99.90;;;;;;5065316;28;20033;-46
2024/01/27 05:56:25;;;;;;;12.88;2.08;;;8.80;99.90;;;;;;5065794;28;20322;-47
2024/01/27 05:58:50;;;;;;;12.13;1.35;;;8.80;99.90;;;;;;5065674;28;20084;-47
2024/01/27 06:01:18;;;;;;;15.88;2.15;;;8.80;99.90;;;;;;5064522;28;20037;-46
2024/01/27 06:03:44;;;;;;;13.77;1.90;;;8.90;99.90;;;;;;5065593;28;20024;-46
2024/01/27 06:06:09;;;;;;;15.32;1.90;;;8.90;99.90;;;;;;5065369;28;20028;-46
2024/01/27 06:08:35;;;;;;;15.98;1.95;;;8.90;99.90;;;;;;5065344;28;20033;-46
2024/01/27 06:11:02;;;;;;;9.65;2.05;;;8.90;99.90;;;;;;5065501;28;20317;-47
2024/01/27 06:13:27;;;;;;;6.97;1.73;;;8.90;99.90;;;;;;5064765;28;20201;-46
2024/01/27 06:15:53;;;;;;;15.13;1.88;;;8.90;99.90;;;;;;5065118;28;20052;-46
2024/01/27 06:18:19;;;;;;;12.55;1.83;;;8.90;99.90;;;;;;5064615;28;20021;-45
2024/01/27 06:20:44;;;;;;;10.90;1.98;;;8.90;99.90;;;;;;5065397;28;20031;-46
2024/01/27 06:23:10;;;;;;;11.95;2.15;;;8.90;99.90;;;;;;5065436;28;20048;-46
2024/01/27 06:25:36;;;;;;;13.00;2.08;;;8.90;99.90;;;;;;5065426;28;20357;-46
2024/01/27 06:28:01;;;;;;;11.75;2.15;;;8.90;99.90;;;;;;5065009;28;20031;-46
2024/01/27 06:30:27;;;;;;;14.02;2.30;;;8.90;99.90;;;;;;5065295;28;20151;-46
2024/01/27 06:32:52;;;;;;;8.98;1.58;;;8.90;99.90;;;;;;5065335;28;20025;-47
2024/01/27 06:35:18;;;;;;;14.65;1.88;;;8.90;99.90;;;;;;5047373;28;20028;-46
2024/01/27 06:37:44;;;;;;;13.07;1.70;;;8.90;99.90;;;;;;5064770;28;20037;-46
2024/01/27 06:40:10;;;;;;;17.65;2.08;;;9.00;99.90;;;;;;5064908;28;20274;-46
2024/01/27 06:42:35;;;;;;;12.95;2.45;;;9.00;99.90;;;;;;5065202;28;20044;-46
2024/01/27 06:45:01;;;;;;;15.68;3.65;;;9.00;99.90;;;;;;5065048;28;20092;-45
2024/01/27 06:47:27;;;;;;;11.88;2.90;;;9.00;99.90;;;;;;5064889;28;20043;-46
2024/01/27 06:49:53;;;;;;;17.65;5.00;;;8.90;99.90;;;;;;5064859;28;20100;-46
2024/01/27 06:52:18;;;;;;;15.32;4.18;;;9.00;99.90;;;;;;5064944;28;20098;-48
2024/01/27 06:54:44;;;;;;;21.23;6.93;;;9.00;99.90;;;;;;5064969;28;20025;-46
2024/01/27 06:57:20;;;;;;;21.73;5.20;;;9.00;99.90;;;;;;5065075;28;20024;-47
2024/01/27 06:59:51;;;;;;;11.38;3.40;;;9.00;99.90;;;;;;5064966;28;20033;-46
2024/01/27 07:02:26;;;;;;;23.38;4.32;;;9.00;99.90;;;;;;5065061;28;20305;-46
2024/01/27 07:04:52;;;;;;;23.38;6.25;;;9.00;99.90;;;;;;5064897;28;20029;-46
2024/01/27 07:07:19;;;;;;;15.43;3.17;;;9.00;99.90;;;;;;5064476;28;20028;-46
2024/01/27 07:09:45;;;;;;;18.95;3.97;;;9.00;99.90;;;;;;5063843;28;20305;-46
2024/01/27 07:12:10;;;;;;;13.38;3.13;;;9.00;99.90;;;;;;5064687;28;20053;-47
2024/01/27 07:14:36;;;;;;;17.40;2.55;;;9.00;99.90;;;;;;5064799;28;20174;-46
2024/01/27 07:17:04;;;;;;;16.17;2.83;;;9.00;99.90;;;;;;5064211;28;20094;-46
2024/01/27 07:19:29;;;;;;;17.40;2.05;;;9.00;99.90;;;;;;5064415;28;20286;-46
2024/01/27 07:21:55;;;;;;;14.35;2.00;;;8.90;99.90;;;;;;5067834;28;20029;-47
2024/01/27 07:24:20;;;;;;;9.23;1.92;;;8.90;99.90;;;;;;5067293;28;20028;-48
2024/01/27 07:26:46;;;;;;;15.73;2.70;;;8.90;99.90;;;;;;5068147;28;20033;-47
2024/01/27 07:29:12;;;;;;;11.30;1.77;;;8.80;99.90;;;;;;5068322;28;20179;-47
2024/01/27 07:31:37;;;;;;;14.88;1.98;;;8.80;99.90;;;;;;5067929;28;20220;-47
2024/01/27 07:34:06;;;;;;;9.23;2.22;;;8.80;99.90;;;;;;5067988;28;20044;-47
2024/01/27 07:36:32;;;;;;;19.00;2.30;;;8.80;99.90;;;;;;5067003;28;20098;-46
2024/01/27 07:38:58;;;;;;;15.93;2.05;;;8.80;99.90;;;;;;5068022;28;20048;-46
2024/01/27 07:41:24;;;;;;;13.40;2.38;;;8.80;99.90;;;;;;5066821;28;20111;-45
2024/01/27 07:43:50;;;;;;;13.48;2.30;;;8.70;99.90;;;;;;5066802;28;20029;-47
2024/01/27 07:46:15;;;;;;;18.42;2.92;;;8.70;99.90;;;;;;5067526;28;20078;-46
2024/01/27 07:48:41;;;;;;;17.58;2.42;;;8.70;99.90;;;;;;5067834;28;20032;-46
2024/01/27 07:51:07;;;;;;;12.68;2.47;;;8.60;99.90;;;;;;5068390;28;20036;-46
2024/01/27 07:53:33;;;;;;;16.80;2.45;;;8.70;99.90;;;;;;5067776;28;20159;-45
2024/01/27 07:55:59;;;;;;;22.40;2.70;;;8.60;99.90;;;;;;5067755;28;20033;-46
2024/01/27 07:58:25;;;;;;;13.45;2.50;;;8.60;99.90;;;;;;5067675;28;20192;-46
2024/01/27 08:00:51;;;;;;;18.45;2.47;;;8.60;99.90;;;;;;5067606;28;20092;-47
2024/01/27 08:03:17;;;;;;;19.70;2.58;;;8.50;99.90;;;;;;5067216;28;20048;-48
2024/01/27 08:05:42;;;;;;;14.30;2.10;;;8.50;99.90;;;;;;5067330;28;20029;-47
2024/01/27 08:08:08;;;;;;;18.73;2.40;;;8.50;99.90;;;;;;5066530;28;20027;-48
2024/01/27 08:10:34;;;;;;;18.13;2.40;;;8.50;99.90;;;;;;5067518;28;20168;-46
2024/01/27 08:12:59;;;;;;;15.25;2.85;;;8.50;99.90;;;;;;5067437;28;20021;-46
2024/01/27 08:15:25;;;;;;;14.40;2.58;;;8.40;99.90;;;;;;5067246;28;20028;-47
2024/01/27 08:17:51;;;;;;;13.57;2.55;;;8.40;99.90;;;;;;5067362;28;20037;-46
2024/01/27 08:20:16;;;;;;;13.50;3.22;;;8.40;99.90;;;;;;5067263;28;20078;-46
2024/01/27 08:22:42;;;;;;;16.95;2.55;;;8.50;99.90;;;;;;5067243;28;20279;-46
2024/01/27 08:25:08;;;;;;;16.60;2.42;;;8.50;99.90;;;;;;5067083;28;20033;-46
2024/01/27 08:27:34;;;;;;;15.38;2.85;;;8.60;99.90;;;;;;5066907;28;20043;-47
2024/01/27 08:29:59;;;;;;;13.57;3.13;;;8.70;99.90;;;;;;5067071;28;20163;-46
2024/01/27 08:32:25;;;;;;;15.40;2.45;;;8.70;99.90;;;;;;5065690;28;20040;-49
2024/01/27 08:34:50;;;;;;;14.50;1.92;;;8.80;99.90;;;;;;5065863;28;20021;-47
2024/01/27 08:37:19;;;;;;;22.10;3.05;;;8.80;99.90;;;;;;5067135;28;20037;-46
2024/01/27 08:39:45;;;;;;;16.77;3.72;;;8.80;99.90;;;;;;5066870;28;20111;-48
2024/01/27 08:42:11;;;;;;;16.42;2.55;;;8.80;99.90;;;;;;5066080;28;20291;-48
2024/01/27 08:44:37;;;;;;;18.55;3.13;;;8.80;99.90;;;;;;5066873;28;20342;-46
2024/01/27 08:47:03;;;;;;;18.63;2.88;;;8.70;99.90;;;;;;5066569;28;20090;-47
2024/01/27 08:49:29;;;;;;;14.10;3.20;;;8.70;99.90;;;;;;5066311;28;20025;-47
2024/01/27 08:51:55;;;;;;;23.27;3.00;;;8.70;99.90;;;;;;5066766;28;20032;-46
2024/01/27 08:54:21;;;;;;;17.83;3.30;;;8.60;99.90;;;;;;5066593;28;20044;-49
2024/01/27 08:56:46;;;;;;;17.02;3.97;;;8.60;99.90;;;;;;5066595;28;20031;-47
2024/01/27 08:59:12;;;;;;;11.18;2.72;;;8.60;99.90;;;;;;5065522;28;20327;-49
2024/01/27 09:01:38;;;;;;;17.48;3.10;;;8.50;99.90;;;;;;5065433;28;20163;-46
2024/01/27 09:04:03;;;;;;;24.45;4.47;;;8.50;99.90;;;;;;5065960;28;20094;-46
2024/01/27 09:06:29;;;;;;;13.18;2.85;;;8.50;99.90;;;;;;5065055;28;20041;-48
2024/01/27 09:08:55;;;;;;;16.75;2.70;;;8.50;99.90;;;;;;5065359;28;20048;-46
2024/01/27 09:11:23;;;;;;;15.20;2.63;;;8.60;99.90;;;;;;5066170;28;20080;-46
2024/01/27 09:13:51;;;;;;;14.07;3.53;;;8.60;99.90;;;;;;5065891;28;20047;-48
2024/01/27 09:16:17;;;;;;;13.95;2.40;;;8.50;99.90;;;;;;5066107;28;20068;-49
2024/01/27 09:18:43;;;;;;;21.42;4.20;;;8.50;99.90;;;;;;5065082;28;20160;-46
2024/01/27 09:21:09;;;;;;;13.98;2.42;;;8.50;99.90;;;;;;5066083;28;20111;-47
2024/01/27 09:23:35;;;;;;;13.30;2.80;;;8.50;99.90;;;;;;5064858;28;20043;-48
2024/01/27 09:26:00;;;;;;;14.10;2.70;;;8.50;99.90;;;;;;5065994;28;20075;-47
2024/01/27 09:28:26;;;;;;;16.13;3.17;;;8.50;99.90;;;;;;5066000;28;20032;-47
2024/01/27 09:30:52;;;;;;;13.85;3.42;;;8.50;99.90;;;;;;5065842;28;20112;-47
2024/01/27 09:33:19;;;;;;;9.80;1.40;;;8.60;99.90;;;;;;5066282;28;20028;-46
2024/01/27 09:35:46;;;;;;;21.33;4.15;;;8.60;99.90;;;;;;5065358;28;20025;-48
2024/01/27 09:38:14;;;;;;;16.25;2.90;;;8.60;99.90;;;;;;5065561;28;20198;-49
2024/01/27 09:40:40;;;;;;;17.10;3.08;;;8.60;99.90;;;;;;5065475;28;20044;-47
2024/01/27 09:43:06;;;;;;;16.15;3.22;;;8.70;99.90;;;;;;5065399;28;20140;-49
2024/01/27 09:45:32;;;;;;;10.57;2.70;;;8.60;99.90;;;;;;5064355;28;20096;-49
2024/01/27 09:47:59;;;;;;;10.65;1.90;;;8.60;99.90;;;;;;5065117;28;20029;-48
2024/01/27 09:50:24;;;;;;;10.20;2.03;;;8.70;99.90;;;;;;5048189;28;20127;-47
2024/01/27 09:52:50;;;;;;;20.58;3.03;;;8.70;99.90;;;;;;5065638;28;20083;-47
2024/01/27 09:55:16;;;;;;;13.48;2.83;;;8.70;99.90;;;;;;5065341;28;20045;-49
2024/01/27 09:57:42;;;;;;;12.27;2.20;;;8.70;99.90;;;;;;5065290;28;20290;-49
2024/01/27 10:00:11;;;;;;;19.15;3.25;;;8.70;99.90;;;;;;5065364;28;20045;-49
2024/01/27 10:02:38;;;;;;;19.33;3.63;;;8.80;99.90;;;;;;5064234;28;20024;-50
2024/01/27 10:05:04;;;;;;;17.05;2.72;;;8.80;99.90;;;;;;5047805;28;20412;-49
2024/01/27 10:07:30;;;;;;;9.32;2.38;;;8.90;99.90;;;;;;5031019;28;20206;-46
2024/01/27 10:09:55;;;;;;;19.15;3.30;;;8.90;99.90;;;;;;5065039;28;20017;-48
2024/01/27 10:12:21;;;;;;;19.30;3.67;;;9.00;99.90;;;;;;5065166;28;20029;-46
2024/01/27 10:14:48;;;;;;;18.08;3.20;;;9.00;99.90;;;;;;5031062;28;20278;-48
2024/01/27 10:17:21;;;;;;;20.40;3.67;;;9.00;99.90;;;;;;5064666;28;20091;-47
2024/01/27 10:19:47;;;;;;;15.32;3.03;;;8.90;99.90;;;;;;5064933;28;20144;-50
2024/01/27 10:22:12;;;;;;;18.52;3.55;;;8.90;99.90;;;;;;5064060;28;20041;-46
2024/01/27 10:24:38;;;;;;;19.20;6.50;;;9.00;99.90;;;;;;5064605;28;20039;-49
2024/01/27 10:27:04;;;;;;;11.05;3.83;;;9.00;99.90;;;;;;5064511;28;20048;-48
2024/01/27 10:29:30;;;;;;;21.00;6.43;;;9.00;99.90;;;;;;5063858;28;20047;-48
2024/01/27 10:32:06;;;;;;;13.52;3.95;;;9.00;99.90;;;;;;5064739;28;20035;-46
2024/01/27 10:34:32;;;;;;;18.15;5.10;;;9.00;99.90;;;;;;5063844;28;20100;-49
2024/01/27 10:36:58;;;;;;;18.92;3.25;;;9.00;99.90;;;;;;5064804;28;20029;-49
2024/01/27 10:39:24;;;;;;;18.23;3.33;;;9.10;99.90;;;;;;5064769;28;20028;-49
2024/01/27 10:41:50;;;;;;;14.13;2.45;;;9.10;99.90;;;;;;5064985;28;20056;-48
2024/01/27 10:44:17;;;;;;;18.52;3.40;;;9.10;99.90;;;;;;5064966;28;20078;-48
2024/01/27 10:46:49;;;;;;;13.70;2.88;;;9.10;99.90;;;;;;5063546;28;20067;-48
2024/01/27 10:49:15;;;;;;;13.68;4.20;;;9.10;99.90;;;;;;5064794;28;20033;-46
2024/01/27 10:51:46;;;;;;;24.85;11.63;;;9.00;99.90;;;;;;5064564;28;20225;-49
2024/01/27 10:54:18;;;;;;;23.58;7.28;;;9.00;99.90;;;;;;5064485;28;20037;-48
2024/01/27 10:56:44;;;;;;;17.73;4.40;;;9.10;99.90;;;;;;5067943;28;20336;-46
2024/01/27 10:59:09;;;;;;;9.57;2.78;;;9.10;99.90;;;;;;5067622;28;20024;-49
2024/01/27 11:01:37;;;;;;;14.60;2.67;;;9.10;99.90;;;;;;5067761;28;20220;-49
2024/01/27 11:04:03;;;;;;;10.48;2.25;;;9.10;99.90;;;;;;5068146;28;20040;-48
2024/01/27 11:06:28;;;;;;;14.05;2.90;;;9.10;99.90;;;;;;5066988;28;20098;-48
2024/01/27 11:08:54;;;;;;;9.10;2.22;;;9.10;99.90;;;;;;5068389;28;20025;-48
2024/01/27 11:11:19;;;;;;;13.15;3.60;;;9.20;99.90;;;;;;5066699;28;20090;-48
2024/01/27 11:13:47;;;;;;;16.63;3.17;;;9.20;99.90;;;;;;5067617;28;20036;-47
2024/01/27 11:16:17;;;;;;;16.60;3.30;;;9.20;99.90;;;;;;5068068;28;20053;-48
2024/01/27 11:18:43;;;;;;;16.65;2.72;;;9.20;99.90;;;;;;5067250;28;20033;-48
2024/01/27 11:21:13;;;;;;;10.02;2.85;;;9.30;99.90;;;;;;5067304;28;20183;-48
2024/01/27 11:23:40;;;;;;;13.73;2.45;;;9.30;99.90;;;;;;5067127;28;20308;-50
2024/01/27 11:26:06;;;;;;;8.60;2.40;;;9.30;99.90;;;;;;5067839;28;20064;-51
2024/01/27 11:28:31;;;;;;;14.65;2.22;;;9.40;99.90;;;;;;5067956;28;20088;-51
2024/01/27 11:30:57;;;;;;;12.07;6.15;;;9.30;99.90;;;;;;5067822;28;20039;-52
2024/01/27 11:33:26;;;;;;;13.48;3.88;;;9.30;99.90;;;;;;5067161;28;20086;-51
2024/01/27 11:36:04;;;;;;;15.23;2.67;;;9.40;99.90;;;;;;5066857;28;20024;-49
2024/01/27 11:38:30;;;;;;;11.48;2.45;;;9.40;99.90;;;;;;5067801;28;20032;-49
2024/01/27 11:40:56;;;;;;;11.00;2.65;;;9.40;99.90;;;;;;5067877;28;20297;-47
2024/01/27 11:43:22;;;;;;;16.52;3.05;;;9.40;99.90;;;;;;5067413;28;20037;-48
2024/01/27 11:46:00;;;;;;;19.98;3.60;;;9.40;99.90;;;;;;5067281;28;20093;-46
2024/01/27 11:48:26;;;;;;;14.95;2.72;;;9.40;99.90;;;;;;5066412;28;20033;-49
2024/01/27 11:51:09;;;;;;;14.48;3.00;;;9.50;99.90;;;;;;5067292;28;20267;-49
2024/01/27 11:53:35;;;;;;;11.32;3.17;;;9.40;99.90;;;;;;5067365;28;20021;-49
2024/01/27 11:56:01;;;;;;;20.58;4.10;;;9.40;99.90;;;;;;5067513;28;20063;-48
2024/01/27 11:58:27;;;;;;;12.60;2.03;;;9.40;99.90;;;;;;5067464;28;20017;-49
2024/01/27 12:00:53;;;;;;;7.75;1.45;;;9.40;99.90;;;;;;5066910;28;20102;-48
2024/01/27 12:03:19;;;;;;;9.60;2.33;;;9.40;99.90;;;;;;5067071;28;20029;-46
2024/01/27 12:05:44;;;;;;;14.38;2.80;;;9.40;99.90;;;;;;5066812;28;20275;-49
2024/01/27 12:08:10;;;;;;;9.70;2.65;;;9.40;99.90;;;;;;5067199;28;20219;-48
2024/01/27 12:10:36;;;;;;;12.55;2.75;;;9.50;99.90;;;;;;5067404;28;20199;-48
2024/01/27 12:13:02;;;;;;;15.30;4.07;;;9.50;99.90;;;;;;5067216;28;20301;-48
2024/01/27 12:15:28;;;;;;;13.68;2.67;;;9.50;99.90;;;;;;5065960;28;20032;-47
2024/01/27 12:17:53;;;;;;;16.38;3.25;;;9.50;99.90;;;;;;5066886;28;20045;-49
2024/01/27 12:20:19;;;;;;;13.45;2.55;;;9.50;99.90;;;;;;5066614;28;20055;-48
2024/01/27 12:22:45;;;;;;;12.95;2.53;;;9.50;99.90;;;;;;5067106;28;20068;-49
2024/01/27 12:25:13;;;;;;;33.13;14.38;;;9.40;99.90;;;;;;5066913;28;20096;-46
2024/01/27 12:27:39;;;;;;;11.25;3.80;;;9.50;99.90;;;;;;5066332;28;20033;-48
2024/01/27 12:30:06;;;;;;;43.53;18.02;;;9.50;99.90;;;;;;5066643;28;20146;-47
2024/01/27 12:32:31;;;;;;;27.50;10.63;;;9.60;99.90;;;;;;5065378;28;20326;-51
2024/01/27 12:35:00;;;;;;;12.02;4.35;;;9.70;99.90;;;;;;5066696;28;20024;-49
2024/01/27 12:37:25;;;;;;;9.07;2.80;;;9.70;99.90;;;;;;5066657;28;20045;-48
2024/01/27 12:39:51;;;;;;;28.85;9.77;;;9.60;99.90;;;;;;5066441;28;20172;-48
2024/01/27 12:42:17;;;;;;;14.55;2.92;;;9.70;99.90;;;;;;5066402;28;20025;-48